sensor_id;sensor_type;location;lat;lon;timestamp;temperature;humidity
19906;DHT22;10115;50.906;4.438;2024-02-16T00:02:01;14.20;99.90
19906;DHT22;10115;50.906;4.438;2024-02-16T00:04:27;14.10;99.90
19906;DHT22;10115;50.906;4.438;2024-02-16T00:06:53;14.30;99.90
19906;DHT22;10115;50.906;4.438;2024-02-16T00:09:18;14.30;99.90
19906;DHT22;10115;50.906;4.438;2024-02-16T00:11:44;14.40;99.90
19906;DHT22;10115;50.906;4.438;2024-02-16T00:14:10;14.10;99.90
19906;DHT22;10115;50.906;4.438;2024-02-16T00:16:36;14.10;99.90
19906;DHT22;10115;50.906;4.438;2024-02-16T00:19:01;14.00;99.90
19906;DHT22;10115;50.906;4.438;2024-02-16T00:21:28;14.30;99.90
19906;DHT22;10115;50.906;4.438;2024-02-16T00:23:54;14.30;99.90
19906;DHT22;10115;50.906;4.438;2024-02-16T00:26:21;14.20;99.90
19906;DHT22;10115;50.906;4.438;2024-02-16T00:28:48;14.10;99.90
19906;DHT22;10115;50.906;4.438;2024-02-16T00:31:14;14.10;99.90
19906;DHT22;10115;50.906;4.438;2024-02-16T00:33:39;14.00;99.90
19906;DHT22;10115;50.906;4.438;2024-02-16T00:36:05;14.00;99.90
19906;DHT22;10115;50.906;4.438;2024-02-16T00:38:31;14.10;99.90
19906;DHT22;10115;50.906;4.438;2024-02-16T00:40:57;14.10;99.90
19906;DHT22;10115;50.906;4.438;2024-02-16T00:43:22;14.00;99.90
19906;DHT22;10115;50.906;4.438;2024-02-16T00:45:49;14.00;99.90
19906;DHT22;10115;50.906;4.438;2024-02-16T00:48:15;13.90;99.90
19906;DHT22;10115;50.906;4.438;2024-02-16T00:50:40;13.90;99.90
19906;DHT22;10115;50.906;4.438;2024-02-16T00:53:08;13.90;99.90
19906;DHT22;10115;50.906;4.438;2024-02-16T00:55:33;13.90;99.90
19906;DHT22;10115;50.906;4.438;2024-02-16T00:57:59;13.90;99.90
19906;DHT22;10115;50.906;4.438;2024-02-16T01:00:25;13.90;99.90
19906;DHT22;10115;50.906;4.438;2024-02-16T01:02:51;13.90;99.90
19906;DHT22;10115;50.906;4.438;2024-02-16T01:05:18;13.90;99.90
19906;DHT22;10115;50.906;4.438;2024-02-16T01:07:44;14.00;99.90
19906;DHT22;10115;50.906;4.438;2024-02-16T01:10:10;14.00;99.90
19906;DHT22;10115;50.906;4.438;2024-02-16T01:12:37;14.10;99.90
19906;DHT22;10115;50.906;4.438;2024-02-16T01:15:03;14.10;99.90
19906;DHT22;10115;50.906;4.438;2024-02-16T01:17:29;14.10;99.90
19906;DHT22;10115;50.906;4.438;2024-02-16T01:19:55;14.10;99.90
19906;DHT22;10115;50.906;4.438;2024-02-16T01:22:20;14.00;99.90
19906;DHT22;10115;50.906;4.438;2024-02-16T01:24:46;14.10;99.90
19906;DHT22;10115;50.906;4.438;2024-02-16T01:27:12;14.10;99.90
19906;DHT22;10115;50.906;4.438;2024-02-16T01:29:37;14.10;99.90
19906;DHT22;10115;50.906;4.438;2024-02-16T01:32:03;14.10;99.90
19906;DHT22;10115;50.906;4.438;2024-02-16T01:34:29;14.20;99.90
19906;DHT22;10115;50.906;4.438;2024-02-16T01:36:56;14.10;99.90
19906;DHT22;10115;50.906;4.438;2024-02-16T01:39:21;14.10;99.90
19906;DHT22;10115;50.906;4.438;2024-02-16T01:41:47;14.20;99.90
19906;DHT22;10115;50.906;4.438;2024-02-16T01:44:13;14.30;99.90
19906;DHT22;10115;50.906;4.438;2024-02-16T01:46:38;14.30;99.90
19906;DHT22;10115;50.906;4.438;2024-02-16T01:49:04;14.30;99.90
19906;DHT22;10115;50.906;4.438;2024-02-16T01:51:31;14.20;99.90
19906;DHT22;10115;50.906;4.438;2024-02-16T01:53:57;14.20;99.90
19906;DHT22;10115;50.906;4.438;2024-02-16T01:56:23;14.20;99.90
19906;DHT22;10115;50.906;4.438;2024-02-16T01:58:50;14.20;99.90
19906;DHT22;10115;50.906;4.438;2024-02-16T02:01:16;14.20;99.90
19906;DHT22;10115;50.906;4.438;2024-02-16T02:03:42;14.20;99.90
19906;DHT22;10115;50.906;4.438;2024-02-16T02:06:07;14.10;99.90
19906;DHT22;10115;50.906;4.438;2024-02-16T02:08:33;14.20;99.90
19906;DHT22;10115;50.906;4.438;2024-02-16T02:10:59;14.20;99.90
19906;DHT22;10115;50.906;4.438;2024-02-16T02:13:24;14.20;99.90
19906;DHT22;10115;50.906;4.438;2024-02-16T02:15:50;14.30;99.90
19906;DHT22;10115;50.906;4.438;2024-02-16T02:18:15;14.30;99.90
19906;DHT22;10115;50.906;4.438;2024-02-16T02:20:41;14.20;99.90
19906;DHT22;10115;50.906;4.438;2024-02-16T02:23:08;14.10;99.90
19906;DHT22;10115;50.906;4.438;2024-02-16T02:25:34;14.10;99.90
19906;DHT22;10115;50.906;4.438;2024-02-16T02:28:00;14.20;99.90
19906;DHT22;10115;50.906;4.438;2024-02-16T02:30:28;14.20;99.90
19906;DHT22;10115;50.906;4.438;2024-02-16T02:32:54;14.20;99.90
19906;DHT22;10115;50.906;4.438;2024-02-16T02:35:19;14.20;99.90
19906;DHT22;10115;50.906;4.438;2024-02-16T02:37:45;14.20;99.90
19906;DHT22;10115;50.906;4.438;2024-02-16T02:40:11;14.10;99.90
19906;DHT22;10115;50.906;4.438;2024-02-16T02:42:37;14.20;99.90
19906;DHT22;10115;50.906;4.438;2024-02-16T02:45:04;14.20;99.90
19906;DHT22;10115;50.906;4.438;2024-02-16T02:47:31;14.20;99.90
19906;DHT22;10115;50.906;4.438;2024-02-16T02:49:57;14.20;99.90
19906;DHT22;10115;50.906;4.438;2024-02-16T02:52:23;14.20;99.90
19906;DHT22;10115;50.906;4.438;2024-02-16T02:54:49;14.20;99.90
19906;DHT22;10115;50.906;4.438;2024-02-16T02:57:14;14.30;99.90
19906;DHT22;10115;50.906;4.438;2024-02-16T02:59:40;14.30;99.90
19906;DHT22;10115;50.906;4.438;2024-02-16T03:02:05;14.40;99.90
19906;DHT22;10115;50.906;4.438;2024-02-16T03:04:31;14.40;99.90
19906;DHT22;10115;50.906;4.438;2024-02-16T03:06:57;14.40;99.90
19906;DHT22;10115;50.906;4.438;2024-02-16T03:09:22;14.40;99.90
19906;DHT22;10115;50.906;4.438;2024-02-16T03:11:48;14.50;99.90
19906;DHT22;10115;50.906;4.438;2024-02-16T03:14:16;14.40;99.90
19906;DHT22;10115;50.906;4.438;2024-02-16T03:16:42;14.40;99.90
19906;DHT22;10115;50.906;4.438;2024-02-16T03:19:08;14.50;99.90
19906;DHT22;10115;50.906;4.438;2024-02-16T03:21:37;14.50;99.90
19906;DHT22;10115;50.906;4.438;2024-02-16T03:24:03;14.40;99.90
19906;DHT22;10115;50.906;4.438;2024-02-16T03:26:29;14.50;99.90
19906;DHT22;10115;50.906;4.438;2024-02-16T03:28:55;14.50;99.90
19906;DHT22;10115;50.906;4.438;2024-02-16T03:31:25;14.40;99.90
19906;DHT22;10115;50.906;4.438;2024-02-16T03:33:51;14.40;99.90
19906;DHT22;10115;50.906;4.438;2024-02-16T03:36:17;14.50;99.90
19906;DHT22;10115;50.906;4.438;2024-02-16T03:38:45;14.50;99.90
19906;DHT22;10115;50.906;4.438;2024-02-16T03:41:13;14.40;99.90
19906;DHT22;10115;50.906;4.438;2024-02-16T03:43:40;14.40;99.90
19906;DHT22;10115;50.906;4.438;2024-02-16T03:46:05;14.30;99.90
19906;DHT22;10115;50.906;4.438;2024-02-16T03:48:31;14.30;99.90
19906;DHT22;10115;50.906;4.438;2024-02-16T03:50:56;14.40;99.90
19906;DHT22;10115;50.906;4.438;2024-02-16T03:53:23;14.50;99.90
19906;DHT22;10115;50.906;4.438;2024-02-16T03:55:49;14.50;99.90
19906;DHT22;10115;50.906;4.438;2024-02-16T03:58:15;14.50;99.90
19906;DHT22;10115;50.906;4.438;2024-02-16T04:00:41;14.50;99.90
19906;DHT22;10115;50.906;4.438;2024-02-16T04:03:06;14.50;99.90
19906;DHT22;10115;50.906;4.438;2024-02-16T04:05:32;14.50;99.90
19906;DHT22;10115;50.906;4.438;2024-02-16T04:08:00;14.40;99.90
19906;DHT22;10115;50.906;4.438;2024-02-16T04:10:28;14.60;99.90
19906;DHT22;10115;50.906;4.438;2024-02-16T04:12:56;14.60;99.90
19906;DHT22;10115;50.906;4.438;2024-02-16T04:15:22;14.60;99.90
19906;DHT22;10115;50.906;4.438;2024-02-16T04:17:48;14.60;99.90
19906;DHT22;10115;50.906;4.438;2024-02-16T04:20:15;14.60;99.90
19906;DHT22;10115;50.906;4.438;2024-02-16T04:22:41;14.60;99.90
19906;DHT22;10115;50.906;4.438;2024-02-16T04:25:07;14.60;99.90
19906;DHT22;10115;50.906;4.438;2024-02-16T04:27:37;14.60;99.90
19906;DHT22;10115;50.906;4.438;2024-02-16T04:30:03;14.70;99.90
19906;DHT22;10115;50.906;4.438;2024-02-16T04:32:30;14.70;99.90
19906;DHT22;10115;50.906;4.438;2024-02-16T04:34:56;14.60;99.90
19906;DHT22;10115;50.906;4.438;2024-02-16T04:37:22;14.60;99.90
19906;DHT22;10115;50.906;4.438;2024-02-16T04:39:49;14.50;99.90
19906;DHT22;10115;50.906;4.438;2024-02-16T04:42:14;14.50;99.90
19906;DHT22;10115;50.906;4.438;2024-02-16T04:44:40;14.50;99.90
19906;DHT22;10115;50.906;4.438;2024-02-16T04:47:06;14.50;99.90
19906;DHT22;10115;50.906;4.438;2024-02-16T04:49:32;14.60;99.90
19906;DHT22;10115;50.906;4.438;2024-02-16T04:51:57;14.50;99.90
19906;DHT22;10115;50.906;4.438;2024-02-16T04:54:24;14.50;99.90
19906;DHT22;10115;50.906;4.438;2024-02-16T04:56:50;14.50;99.90
19906;DHT22;10115;50.906;4.438;2024-02-16T04:59:16;14.50;99.90
19906;DHT22;10115;50.906;4.438;2024-02-16T05:01:46;14.60;99.90
19906;DHT22;10115;50.906;4.438;2024-02-16T05:04:12;14.60;99.90
19906;DHT22;10115;50.906;4.438;2024-02-16T05:06:46;14.60;99.90
19906;DHT22;10115;50.906;4.438;2024-02-16T05:09:16;14.60;99.90
19906;DHT22;10115;50.906;4.438;2024-02-16T05:11:42;14.60;99.90
19906;DHT22;10115;50.906;4.438;2024-02-16T05:14:09;14.60;99.90
19906;DHT22;10115;50.906;4.438;2024-02-16T05:16:37;14.50;99.90
19906;DHT22;10115;50.906;4.438;2024-02-16T05:19:03;14.50;99.90
19906;DHT22;10115;50.906;4.438;2024-02-16T05:21:28;14.50;99.90
19906;DHT22;10115;50.906;4.438;2024-02-16T05:23:54;14.50;99.90
19906;DHT22;10115;50.906;4.438;2024-02-16T05:26:20;14.60;99.90
19906;DHT22;10115;50.906;4.438;2024-02-16T05:28:46;14.60;99.90
19906;DHT22;10115;50.906;4.438;2024-02-16T05:31:17;14.70;99.90
19906;DHT22;10115;50.906;4.438;2024-02-16T05:33:51;14.60;99.90
19906;DHT22;10115;50.906;4.438;2024-02-16T05:36:20;14.70;99.90
19906;DHT22;10115;50.906;4.438;2024-02-16T05:38:47;14.70;99.90
19906;DHT22;10115;50.906;4.438;2024-02-16T05:41:12;14.70;99.90
19906;DHT22;10115;50.906;4.438;2024-02-16T05:43:38;14.70;99.90
19906;DHT22;10115;50.906;4.438;2024-02-16T05:46:04;14.70;99.90
19906;DHT22;10115;50.906;4.438;2024-02-16T05:48:33;14.70;99.90
19906;DHT22;10115;50.906;4.438;2024-02-16T05:51:00;14.70;99.90
19906;DHT22;10115;50.906;4.438;2024-02-16T05:53:27;14.80;99.90
19906;DHT22;10115;50.906;4.438;2024-02-16T05:55:53;14.80;99.90
19906;DHT22;10115;50.906;4.438;2024-02-16T05:58:19;14.80;99.90
19906;DHT22;10115;50.906;4.438;2024-02-16T06:00:45;14.80;99.90
19906;DHT22;10115;50.906;4.438;2024-02-16T06:03:13;14.70;99.90
19906;DHT22;10115;50.906;4.438;2024-02-16T06:05:38;14.70;99.90
19906;DHT22;10115;50.906;4.438;2024-02-16T06:08:06;14.70;99.90
19906;DHT22;10115;50.906;4.438;2024-02-16T06:10:33;14.70;99.90
19906;DHT22;10115;50.906;4.438;2024-02-16T06:12:58;14.60;99.90
19906;DHT22;10115;50.906;4.438;2024-02-16T06:15:24;14.60;99.90
19906;DHT22;10115;50.906;4.438;2024-02-16T06:17:50;14.60;99.90
19906;DHT22;10115;50.906;4.438;2024-02-16T06:20:16;14.60;99.90
19906;DHT22;10115;50.906;4.438;2024-02-16T06:22:42;14.70;99.90
19906;DHT22;10115;50.906;4.438;2024-02-16T06:25:08;14.70;99.90
19906;DHT22;10115;50.906;4.438;2024-02-16T06:27:34;14.60;99.90
19906;DHT22;10115;50.906;4.438;2024-02-16T06:30:00;14.60;99.90
19906;DHT22;10115;50.906;4.438;2024-02-16T06:32:26;14.50;99.90
19906;DHT22;10115;50.906;4.438;2024-02-16T06:34:53;14.50;99.90
19906;DHT22;10115;50.906;4.438;2024-02-16T06:37:19;14.40;99.90
19906;DHT22;10115;50.906;4.438;2024-02-16T06:39:45;14.30;99.90
19906;DHT22;10115;50.906;4.438;2024-02-16T06:42:10;14.30;99.90
19906;DHT22;10115;50.906;4.438;2024-02-16T06:44:39;14.30;99.90
19906;DHT22;10115;50.906;4.438;2024-02-16T06:47:05;14.20;99.90
19906;DHT22;10115;50.906;4.438;2024-02-16T06:49:31;14.20;99.90
19906;DHT22;10115;50.906;4.438;2024-02-16T06:51:57;14.20;99.90
19906;DHT22;10115;50.906;4.438;2024-02-16T06:54:22;14.20;99.90
19906;DHT22;10115;50.906;4.438;2024-02-16T06:56:49;14.20;99.90
19906;DHT22;10115;50.906;4.438;2024-02-16T06:59:17;14.10;99.90
19906;DHT22;10115;50.906;4.438;2024-02-16T07:01:42;14.10;99.90
19906;DHT22;10115;50.906;4.438;2024-02-16T07:04:08;14.10;99.90
19906;DHT22;10115;50.906;4.438;2024-02-16T07:06:35;14.00;99.90
19906;DHT22;10115;50.906;4.438;2024-02-16T07:09:01;14.00;99.90
19906;DHT22;10115;50.906;4.438;2024-02-16T07:11:28;13.90;99.90
19906;DHT22;10115;50.906;4.438;2024-02-16T07:13:53;13.80;99.90
19906;DHT22;10115;50.906;4.438;2024-02-16T07:16:19;13.70;99.90
19906;DHT22;10115;50.906;4.438;2024-02-16T07:18:45;13.60;99.90
19906;DHT22;10115;50.906;4.438;2024-02-16T07:21:10;13.60;99.90
19906;DHT22;10115;50.906;4.438;2024-02-16T07:23:37;13.60;99.90
19906;DHT22;10115;50.906;4.438;2024-02-16T07:26:02;13.60;99.90
19906;DHT22;10115;50.906;4.438;2024-02-16T07:28:28;13.60;99.90
19906;DHT22;10115;50.906;4.438;2024-02-16T07:30:54;13.60;99.90
19906;DHT22;10115;50.906;4.438;2024-02-16T07:33:20;13.60;99.90
19906;DHT22;10115;50.906;4.438;2024-02-16T07:35:47;13.70;99.90
19906;DHT22;10115;50.906;4.438;2024-02-16T07:38:12;13.70;99.90
19906;DHT22;10115;50.906;4.438;2024-02-16T07:40:38;13.70;99.90
19906;DHT22;10115;50.906;4.438;2024-02-16T07:43:04;13.70;99.90
19906;DHT22;10115;50.906;4.438;2024-02-16T07:45:30;13.80;99.90
19906;DHT22;10115;50.906;4.438;2024-02-16T07:47:56;13.80;99.90
19906;DHT22;10115;50.906;4.438;2024-02-16T07:50:22;13.90;99.90
19906;DHT22;10115;50.906;4.438;2024-02-16T07:52:49;14.00;99.90
19906;DHT22;10115;50.906;4.438;2024-02-16T07:55:15;13.90;99.90
19906;DHT22;10115;50.906;4.438;2024-02-16T07:57:46;14.00;99.90
19906;DHT22;10115;50.906;4.438;2024-02-16T08:00:12;14.00;99.90
19906;DHT22;10115;50.906;4.438;2024-02-16T08:02:37;14.10;99.90
19906;DHT22;10115;50.906;4.438;2024-02-16T08:05:04;14.20;99.90
19906;DHT22;10115;50.906;4.438;2024-02-16T08:07:31;14.10;99.90
19906;DHT22;10115;50.906;4.438;2024-02-16T08:09:57;14.10;99.90
19906;DHT22;10115;50.906;4.438;2024-02-16T08:12:22;14.10;99.90
19906;DHT22;10115;50.906;4.438;2024-02-16T08:14:51;14.10;99.90
19906;DHT22;10115;50.906;4.438;2024-02-16T08:17:16;14.10;99.90
19906;DHT22;10115;50.906;4.438;2024-02-16T08:19:42;14.20;99.90
19906;DHT22;10115;50.906;4.438;2024-02-16T08:22:08;14.20;99.90
19906;DHT22;10115;50.906;4.438;2024-02-16T08:24:37;14.20;99.90
19906;DHT22;10115;50.906;4.438;2024-02-16T08:27:03;14.10;99.90
19906;DHT22;10115;50.906;4.438;2024-02-16T08:29:32;14.10;99.90
19906;DHT22;10115;50.906;4.438;2024-02-16T08:31:57;14.10;99.90
19906;DHT22;10115;50.906;4.438;2024-02-16T08:34:23;14.10;99.90
19906;DHT22;10115;50.906;4.438;2024-02-16T08:36:51;14.00;99.90
19906;DHT22;10115;50.906;4.438;2024-02-16T08:39:17;13.90;99.90
19906;DHT22;10115;50.906;4.438;2024-02-16T08:41:44;13.80;99.90
19906;DHT22;10115;50.906;4.438;2024-02-16T08:44:10;13.70;99.90
19906;DHT22;10115;50.906;4.438;2024-02-16T08:46:38;13.60;99.90
19906;DHT22;10115;50.906;4.438;2024-02-16T08:49:04;13.40;99.90
19906;DHT22;10115;50.906;4.438;2024-02-16T08:51:32;13.40;99.90
19906;DHT22;10115;50.906;4.438;2024-02-16T08:53:57;13.30;99.90
19906;DHT22;10115;50.906;4.438;2024-02-16T08:56:23;13.30;99.90
19906;DHT22;10115;50.906;4.438;2024-02-16T08:58:49;13.30;99.90
19906;DHT22;10115;50.906;4.438;2024-02-16T09:01:14;13.20;99.90
19906;DHT22;10115;50.906;4.438;2024-02-16T09:03:42;13.20;99.90
19906;DHT22;10115;50.906;4.438;2024-02-16T09:06:08;13.20;99.90
19906;DHT22;10115;50.906;4.438;2024-02-16T09:08:34;13.30;99.90
19906;DHT22;10115;50.906;4.438;2024-02-16T09:11:03;13.30;99.90
19906;DHT22;10115;50.906;4.438;2024-02-16T09:13:33;13.40;99.90
19906;DHT22;10115;50.906;4.438;2024-02-16T09:15:59;13.50;99.90
19906;DHT22;10115;50.906;4.438;2024-02-16T09:18:25;13.50;99.90
19906;DHT22;10115;50.906;4.438;2024-02-16T09:20:51;13.50;99.90
19906;DHT22;10115;50.906;4.438;2024-02-16T09:23:17;13.50;99.90
19906;DHT22;10115;50.906;4.438;2024-02-16T09:25:43;13.50;99.90
19906;DHT22;10115;50.906;4.438;2024-02-16T09:28:09;13.50;99.90
19906;DHT22;10115;50.906;4.438;2024-02-16T09:30:37;13.40;99.90
19906;DHT22;10115;50.906;4.438;2024-02-16T09:33:03;13.30;99.90
19906;DHT22;10115;50.906;4.438;2024-02-16T09:35:28;13.20;99.90
19906;DHT22;10115;50.906;4.438;2024-02-16T09:37:54;13.10;99.90
19906;DHT22;10115;50.906;4.438;2024-02-16T09:40:20;13.20;99.90
19906;DHT22;10115;50.906;4.438;2024-02-16T09:42:48;13.10;99.90
19906;DHT22;10115;50.906;4.438;2024-02-16T09:45:17;13.10;99.90
19906;DHT22;10115;50.906;4.438;2024-02-16T09:47:45;13.20;99.90
19906;DHT22;10115;50.906;4.438;2024-02-16T09:50:13;13.20;99.90
19906;DHT22;10115;50.906;4.438;2024-02-16T09:52:40;13.10;99.90
19906;DHT22;10115;50.906;4.438;2024-02-16T09:55:11;13.20;99.90
19906;DHT22;10115;50.906;4.438;2024-02-16T09:57:37;13.20;99.90
19906;DHT22;10115;50.906;4.438;2024-02-16T10:00:03;13.20;99.90
19906;DHT22;10115;50.906;4.438;2024-02-16T10:02:42;13.20;99.90
19906;DHT22;10115;50.906;4.438;2024-02-16T10:05:24;13.30;99.90
19906;DHT22;10115;50.906;4.438;2024-02-16T10:07:50;13.30;99.90
19906;DHT22;10115;50.906;4.438;2024-02-16T10:10:21;13.40;99.90
19906;DHT22;10115;50.906;4.438;2024-02-16T10:12:47;13.40;99.90
19906;DHT22;10115;50.906;4.438;2024-02-16T10:15:20;13.40;99.90
19906;DHT22;10115;50.906;4.438;2024-02-16T10:18:00;13.40;99.90
19906;DHT22;10115;50.906;4.438;2024-02-16T10:20:25;13.50;99.90
19906;DHT22;10115;50.906;4.438;2024-02-16T10:23:11;13.60;99.90
19906;DHT22;10115;50.906;4.438;2024-02-16T10:25:38;13.60;99.90
19906;DHT22;10115;50.906;4.438;2024-02-16T10:28:10;13.70;99.90
19906;DHT22;10115;50.906;4.438;2024-02-16T10:30:41;13.70;99.90
19906;DHT22;10115;50.906;4.438;2024-02-16T10:33:08;13.70;99.90
19906;DHT22;10115;50.906;4.438;2024-02-16T10:35:38;13.60;99.90
19906;DHT22;10115;50.906;4.438;2024-02-16T10:38:06;13.60;99.90
19906;DHT22;10115;50.906;4.438;2024-02-16T10:40:38;13.50;99.90
19906;DHT22;10115;50.906;4.438;2024-02-16T10:43:05;13.50;99.90
19906;DHT22;10115;50.906;4.438;2024-02-16T10:45:35;13.50;99.90
19906;DHT22;10115;50.906;4.438;2024-02-16T10:48:06;13.50;99.90
19906;DHT22;10115;50.906;4.438;2024-02-16T10:50:33;13.50;99.90
19906;DHT22;10115;50.906;4.438;2024-02-16T10:53:14;13.40;99.90
19906;DHT22;10115;50.906;4.438;2024-02-16T10:55:41;13.40;99.90
19906;DHT22;10115;50.906;4.438;2024-02-16T10:58:08;13.40;99.90
19906;DHT22;10115;50.906;4.438;2024-02-16T11:00:35;13.30;99.90
19906;DHT22;10115;50.906;4.438;2024-02-16T11:03:02;13.30;99.90
19906;DHT22;10115;50.906;4.438;2024-02-16T11:05:35;13.40;99.90
19906;DHT22;10115;50.906;4.438;2024-02-16T11:08:05;13.40;99.90
19906;DHT22;10115;50.906;4.438;2024-02-16T11:10:36;13.40;99.90
19906;DHT22;10115;50.906;4.438;2024-02-16T11:13:03;13.40;99.90
19906;DHT22;10115;50.906;4.438;2024-02-16T11:15:32;13.30;99.90
19906;DHT22;10115;50.906;4.438;2024-02-16T11:18:02;13.20;99.90
19906;DHT22;10115;50.906;4.438;2024-02-16T11:20:28;13.10;99.90
19906;DHT22;10115;50.906;4.438;2024-02-16T11:23:05;13.10;99.90
19906;DHT22;10115;50.906;4.438;2024-02-16T11:25:33;13.10;99.90
19906;DHT22;10115;50.906;4.438;2024-02-16T11:27:59;13.10;99.90
19906;DHT22;10115;50.906;4.438;2024-02-16T11:30:25;13.00;99.90
19906;DHT22;10115;50.906;4.438;2024-02-16T11:32:51;13.00;99.90
19906;DHT22;10115;50.906;4.438;2024-02-16T11:35:17;13.00;99.90
19906;DHT22;10115;50.906;4.438;2024-02-16T11:37:43;12.90;99.90
19906;DHT22;10115;50.906;4.438;2024-02-16T11:40:13;12.90;99.90
19906;DHT22;10115;50.906;4.438;2024-02-16T11:42:39;12.80;99.90
19906;DHT22;10115;50.906;4.438;2024-02-16T11:45:10;12.80;99.90
19906;DHT22;10115;50.906;4.438;2024-02-16T11:47:37;12.80;99.90
19906;DHT22;10115;50.906;4.438;2024-02-16T11:50:08;12.80;99.90
19906;DHT22;10115;50.906;4.438;2024-02-16T11:52:38;12.80;99.90
19906;DHT22;10115;50.906;4.438;2024-02-16T11:55:07;12.80;99.90
19906;DHT22;10115;50.906;4.438;2024-02-16T11:57:34;12.70;99.90
19906;DHT22;10115;50.906;4.438;2024-02-16T12:00:03;12.80;99.90
19906;DHT22;10115;50.906;4.438;2024-02-16T12:02:34;12.70;99.90
19906;DHT22;10115;50.906;4.438;2024-02-16T12:05:00;12.70;99.90
19906;DHT22;10115;50.906;4.438;2024-02-16T12:07:26;12.60;99.90
19906;DHT22;10115;50.906;4.438;2024-02-16T12:09:59;12.60;99.90
19906;DHT22;10115;50.906;4.438;2024-02-16T12:12:26;12.60;99.90
19906;DHT22;10115;50.906;4.438;2024-02-16T12:14:54;12.60;99.90
19906;DHT22;10115;50.906;4.438;2024-02-16T12:17:20;12.60;99.90
19906;DHT22;10115;50.906;4.438;2024-02-16T12:19:46;12.60;99.90
19906;DHT22;10115;50.906;4.438;2024-02-16T12:22:17;12.60;99.90
19906;DHT22;10115;50.906;4.438;2024-02-16T12:24:45;12.60;99.90
19906;DHT22;10115;50.906;4.438;2024-02-16T12:27:10;12.50;99.90
19906;DHT22;10115;50.906;4.438;2024-02-16T12:29:36;12.50;99.90
19906;DHT22;10115;50.906;4.438;2024-02-16T12:32:02;12.50;99.90
19906;DHT22;10115;50.906;4.438;2024-02-16T12:34:28;12.50;99.90
19906;DHT22;10115;50.906;4.438;2024-02-16T12:36:53;12.40;99.90
19906;DHT22;10115;50.906;4.438;2024-02-16T12:39:19;12.40;99.90
19906;DHT22;10115;50.906;4.438;2024-02-16T12:41:46;12.40;99.90
19906;DHT22;10115;50.906;4.438;2024-02-16T12:44:12;12.40;99.90
19906;DHT22;10115;50.906;4.438;2024-02-16T12:46:37;12.40;99.90
19906;DHT22;10115;50.906;4.438;2024-02-16T12:49:04;12.40;99.90
19906;DHT22;10115;50.906;4.438;2024-02-16T12:51:30;12.40;99.90
19906;DHT22;10115;50.906;4.438;2024-02-16T12:53:55;12.40;99.90
19906;DHT22;10115;50.906;4.438;2024-02-16T12:56:21;12.30;99.90
19906;DHT22;10115;50.906;4.438;2024-02-16T12:58:47;12.30;99.90
19906;DHT22;10115;50.906;4.438;2024-02-16T13:01:13;12.40;99.90
19906;DHT22;10115;50.906;4.438;2024-02-16T13:03:39;12.30;99.90
19906;DHT22;10115;50.906;4.438;2024-02-16T13:06:05;12.30;99.90
19906;DHT22;10115;50.906;4.438;2024-02-16T13:08:31;12.30;99.90
19906;DHT22;10115;50.906;4.438;2024-02-16T13:10:57;12.30;99.90
19906;DHT22;10115;50.906;4.438;2024-02-16T13:13:23;12.30;99.90
19906;DHT22;10115;50.906;4.438;2024-02-16T13:15:49;12.30;99.90
19906;DHT22;10115;50.906;4.438;2024-02-16T13:18:15;12.30;99.90
19906;DHT22;10115;50.906;4.438;2024-02-16T13:20:42;12.30;99.90
19906;DHT22;10115;50.906;4.438;2024-02-16T13:23:08;12.30;99.90
19906;DHT22;10115;50.906;4.438;2024-02-16T13:25:35;12.20;99.90
19906;DHT22;10115;50.906;4.438;2024-02-16T13:28:00;12.30;99.90
19906;DHT22;10115;50.906;4.438;2024-02-16T13:30:26;12.30;99.90
19906;DHT22;10115;50.906;4.438;2024-02-16T13:32:55;12.30;99.90
19906;DHT22;10115;50.906;4.438;2024-02-16T13:35:21;12.30;99.90
19906;DHT22;10115;50.906;4.438;2024-02-16T13:37:46;12.40;99.90
19906;DHT22;10115;50.906;4.438;2024-02-16T13:40:13;12.50;99.90
19906;DHT22;10115;50.906;4.438;2024-02-16T13:42:39;12.50;99.90
19906;DHT22;10115;50.906;4.438;2024-02-16T13:45:06;12.50;99.90
19906;DHT22;10115;50.906;4.438;2024-02-16T13:47:31;12.60;99.90
19906;DHT22;10115;50.906;4.438;2024-02-16T13:49:57;12.50;99.90
19906;DHT22;10115;50.906;4.438;2024-02-16T13:52:24;12.60;99.90
19906;DHT22;10115;50.906;4.438;2024-02-16T13:54:50;12.60;99.90
19906;DHT22;10115;50.906;4.438;2024-02-16T13:57:15;12.50;99.90
19906;DHT22;10115;50.906;4.438;2024-02-16T13:59:42;12.60;99.90
19906;DHT22;10115;50.906;4.438;2024-02-16T14:02:08;12.70;99.90
19906;DHT22;10115;50.906;4.438;2024-02-16T14:04:34;12.70;99.90
19906;DHT22;10115;50.906;4.438;2024-02-16T14:07:00;12.80;99.90
19906;DHT22;10115;50.906;4.438;2024-02-16T14:09:25;12.70;99.90
19906;DHT22;10115;50.906;4.438;2024-02-16T14:11:52;12.80;99.90
19906;DHT22;10115;50.906;4.438;2024-02-16T14:14:19;12.80;99.90
19906;DHT22;10115;50.906;4.438;2024-02-16T14:16:45;12.80;99.90
19906;DHT22;10115;50.906;4.438;2024-02-16T14:19:10;12.80;99.90
19906;DHT22;10115;50.906;4.438;2024-02-16T14:21:36;12.70;99.90
19906;DHT22;10115;50.906;4.438;2024-02-16T14:24:02;12.90;99.90
19906;DHT22;10115;50.906;4.438;2024-02-16T14:26:27;13.10;99.90
19906;DHT22;10115;50.906;4.438;2024-02-16T14:28:53;13.10;99.90
19906;DHT22;10115;50.906;4.438;2024-02-16T14:31:20;13.00;99.90
19906;DHT22;10115;50.906;4.438;2024-02-16T14:33:48;13.10;99.90
19906;DHT22;10115;50.906;4.438;2024-02-16T14:36:14;13.20;99.90
19906;DHT22;10115;50.906;4.438;2024-02-16T14:38:40;13.10;99.90
19906;DHT22;10115;50.906;4.438;2024-02-16T14:41:05;13.10;99.90
19906;DHT22;10115;50.906;4.438;2024-02-16T14:43:32;13.10;99.90
19906;DHT22;10115;50.906;4.438;2024-02-16T14:46:01;13.10;99.90
19906;DHT22;10115;50.906;4.438;2024-02-16T14:48:29;13.10;99.90
19906;DHT22;10115;50.906;4.438;2024-02-16T14:50:55;13.10;99.90
19906;DHT22;10115;50.906;4.438;2024-02-16T14:53:21;13.30;99.90
19906;DHT22;10115;50.906;4.438;2024-02-16T14:55:50;13.30;99.90
19906;DHT22;10115;50.906;4.438;2024-02-16T14:58:17;13.40;99.90
19906;DHT22;10115;50.906;4.438;2024-02-16T15:00:42;13.30;99.90
19906;DHT22;10115;50.906;4.438;2024-02-16T15:03:12;13.30;99.90
19906;DHT22;10115;50.906;4.438;2024-02-16T15:05:39;13.20;99.90
19906;DHT22;10115;50.906;4.438;2024-02-16T15:08:05;13.30;99.90
19906;DHT22;10115;50.906;4.438;2024-02-16T15:10:31;13.20;99.90
19906;DHT22;10115;50.906;4.438;2024-02-16T15:12:57;13.20;99.90
19906;DHT22;10115;50.906;4.438;2024-02-16T15:15:23;13.20;99.90
19906;DHT22;10115;50.906;4.438;2024-02-16T15:17:49;13.30;99.90
19906;DHT22;10115;50.906;4.438;2024-02-16T15:20:14;13.30;99.90
19906;DHT22;10115;50.906;4.438;2024-02-16T15:22:40;13.10;99.90
19906;DHT22;10115;50.906;4.438;2024-02-16T15:25:09;13.00;99.90
19906;DHT22;10115;50.906;4.438;2024-02-16T15:27:36;13.00;99.90